William — WDF2392 — position and weather

sailwx.info

Track history (hours):
 
Tides and Currents Weather Stations Pressure Air Temp Water Temp Dewpoint Dewpoint Depression Visibility Wind Speed Wind Dir Waves Ship Positions

William

Owner: Enterprise Marine Services, LLC, San Antonio, TX. More information available from US FCC via Universal Licensing System and Coast Guard Vessel Documentation Center.

Last reported at 2018-Feb-19 06:01 UTC. Time now 2018-Feb-19 06:09 UTC.
Position N 30°04' W 093°24'.

Length 22 m; draft 2.7 m.

Type: Towing. MMSI: 367423260.

Date/timePositionNaut miles runAvg speedWind from/ knotsBaromVisibWave heightAir tempDewpointWater temp
2018-Feb-19 06:01N 30°04' W 093°24'0 0.0
2018-Feb-19 05:29N 30°04' W 093°24'0 0.0
2018-Feb-19 05:00N 30°04' W 093°24'0 0.0
2018-Feb-19 04:29N 30°04' W 093°24'0 0.0
2018-Feb-19 04:00N 30°04' W 093°24'0 0.0
2018-Feb-19 03:30N 30°04' W 093°24'0 0.0
2018-Feb-19 02:58N 30°04' W 093°24'0 0.0
2018-Feb-19 02:29N 30°04' W 093°24'0 0.0
2018-Feb-19 02:00N 30°04' W 093°24'0 0.0
2018-Feb-19 01:31N 30°04' W 093°24'0 0.0
2018-Feb-19 01:01N 30°04' W 093°24'1 1.8
2018-Feb-19 00:31N 30°04' W 093°25'3 6.2
2018-Feb-19 00:00N 30°04' W 093°28'7 6.8
2018-Feb-18 23:00N 30°04' W 093°36'3 6.4
2018-Feb-18 22:30N 30°04' W 093°40'3 6.7
2018-Feb-18 22:01N 30°03' W 093°44'3 6.7
2018-Feb-18 21:31N 30°00' W 093°46'3 6.7
2018-Feb-18 21:01N 29°59' W 093°49'3 6.7
2018-Feb-18 20:31N 29°56' W 093°52'3 6.2
2018-Feb-18 20:01N 29°54' W 093°54'3 6.0
2018-Feb-18 19:31N 29°51' W 093°56'2 4.0
2018-Feb-18 19:00N 29°50' W 093°58'0 0.4
2018-Feb-18 18:30N 29°50' W 093°58'0 0.4
2018-Feb-18 18:00N 29°50' W 093°58'0 0.0
2018-Feb-18 17:30N 29°50' W 093°58'0 0.4
2018-Feb-18 17:01N 29°50' W 093°58'0 0.0
2018-Feb-18 16:30N 29°50' W 093°58'0 0.0
2018-Feb-18 16:00N 29°50' W 093°58'0 0.0
2018-Feb-18 15:30N 29°50' W 093°58'0 0.0
2018-Feb-18 15:00N 29°50' W 093°58'0 0.0
2018-Feb-18 14:30N 29°50' W 093°58'0 0.0
2018-Feb-18 14:00N 29°50' W 093°58'0 0.0
2018-Feb-18 13:30N 29°50' W 093°58'0 0.0
2018-Feb-18 13:00N 29°50' W 093°58'0 0.0
2018-Feb-18 12:30N 29°50' W 093°58'0 0.0
2018-Feb-18 12:00N 29°50' W 093°58'0 0.0
2018-Feb-18 11:30N 29°50' W 093°58'0 0.0
2018-Feb-18 11:00N 29°50' W 093°58'0 0.0
2018-Feb-18 10:30N 29°50' W 093°58'0 0.0
2018-Feb-18 10:00N 29°50' W 093°58'0 0.0
2018-Feb-18 09:30N 29°50' W 093°58'0 0.0
2018-Feb-18 09:00N 29°50' W 093°58'0 0.0
2018-Feb-18 08:29N 29°50' W 093°58'0 0.0
2018-Feb-18 08:00N 29°50' W 093°58'0 0.0
2018-Feb-18 07:30N 29°50' W 093°58'0 0.0
2018-Feb-18 07:00N 29°50' W 093°58'0 0.0
2018-Feb-18 06:30N 29°50' W 093°58'0 0.0
2018-Feb-18 05:59N 29°50' W 093°58'0 0.0
2018-Feb-18 05:30N 29°50' W 093°58'0 0.0
2018-Feb-18 04:59N 29°50' W 093°58'0 0.0
2018-Feb-18 04:30N 29°50' W 093°58'0 0.0
2018-Feb-18 04:00N 29°50' W 093°58'0 0.0
2018-Feb-18 03:30N 29°50' W 093°58'0 0.0
2018-Feb-18 03:00N 29°50' W 093°58'0 0.2
2018-Feb-18 02:30N 29°50' W 093°58'0 0.0
2018-Feb-18 02:00N 29°50' W 093°58'0 0.0
2018-Feb-18 01:30N 29°50' W 093°58'0 0.0
2018-Feb-18 01:00N 29°50' W 093°58'0 0.0
2018-Feb-18 00:30N 29°50' W 093°58'0 0.1
2018-Feb-18 00:00N 29°50' W 093°58'0 0.1
2018-Feb-17 23:30N 29°50' W 093°58'0 0.0
2018-Feb-17 23:00N 29°50' W 093°58'0 0.0
2018-Feb-17 22:30N 29°50' W 093°58'0 0.0
2018-Feb-17 22:00N 29°50' W 093°58'0 0.0
2018-Feb-17 21:30N 29°50' W 093°58'0 0.0
2018-Feb-17 21:00N 29°50' W 093°58'0 0.0
2018-Feb-17 20:30N 29°50' W 093°58'0 0.0
2018-Feb-17 20:00N 29°50' W 093°58'0 0.0
2018-Feb-17 19:30N 29°50' W 093°58'0 0.0
2018-Feb-17 19:00N 29°50' W 093°58'0 0.0
2018-Feb-17 18:30N 29°50' W 093°58'0 0.0
2018-Feb-17 18:00N 29°50' W 093°58'0 0.0
2018-Feb-17 17:30N 29°50' W 093°58'0 0.0
2018-Feb-17 17:00N 29°50' W 093°58'0 0.0
2018-Feb-17 16:30N 29°50' W 093°58'0 0.0
2018-Feb-17 16:00N 29°50' W 093°58'0 0.0
2018-Feb-17 15:30N 29°50' W 093°58'0 0.0
2018-Feb-17 15:00N 29°50' W 093°58'0 0.0
2018-Feb-17 14:30N 29°50' W 093°58'0 0.1
2018-Feb-17 14:00N 29°50' W 093°58'0 0.0
2018-Feb-17 13:30N 29°50' W 093°58'0 0.0
2018-Feb-17 13:00N 29°50' W 093°58'0 0.1
2018-Feb-17 12:30N 29°50' W 093°58'0 0.2
2018-Feb-17 12:00N 29°50' W 093°58'0 0.0
2018-Feb-17 11:30N 29°50' W 093°58'0 0.0
2018-Feb-17 11:00N 29°50' W 093°58'0 0.0
2018-Feb-17 10:30N 29°50' W 093°58'0 0.0
2018-Feb-17 10:00N 29°50' W 093°58'0 0.0
2018-Feb-17 09:30N 29°50' W 093°58'0 0.0
2018-Feb-17 09:00N 29°50' W 093°58'0 0.0
2018-Feb-17 08:30N 29°50' W 093°58'0 0.0
2018-Feb-17 08:00N 29°50' W 093°58'0 0.0
2018-Feb-17 07:30N 29°50' W 093°58'0 0.0
2018-Feb-17 07:00N 29°50' W 093°58'0 0.0
2018-Feb-17 06:30N 29°50' W 093°58'0 0.0
2018-Feb-17 06:00N 29°50' W 093°58'0 0.0
2018-Feb-17 05:30N 29°50' W 093°58'0 0.0
2018-Feb-17 05:00N 29°50' W 093°58'0 0.0
2018-Feb-17 04:30N 29°50' W 093°58'0 0.0
2018-Feb-17 04:00N 29°50' W 093°58'0 0.0
2018-Feb-17 03:30N 29°50' W 093°58'0 0.0
2018-Feb-17 03:00N 29°50' W 093°58'0 0.0
2018-Feb-17 02:30N 29°50' W 093°58'0 0.0
2018-Feb-17 02:00N 29°50' W 093°58'0 0.1
2018-Feb-17 01:30N 29°50' W 093°58'0 0.1
2018-Feb-17 01:00N 29°50' W 093°58'0 0.0
2018-Feb-17 00:30N 29°50' W 093°58'0 0.0
2018-Feb-17 00:00N 29°50' W 093°58'0 0.0
2018-Feb-16 23:29N 29°50' W 093°58'0 0.0
2018-Feb-16 23:00N 29°50' W 093°58'0 0.0
2018-Feb-16 22:30N 29°50' W 093°58'0 0.0
2018-Feb-16 22:00N 29°50' W 093°58'1 2.9
2018-Feb-16 21:30N 29°51' W 093°57'4 7.9
2018-Feb-16 21:00N 29°54' W 093°54'4 7.4
2018-Feb-16 20:30N 29°57' W 093°51'3 6.3
2018-Feb-16 20:00N 29°59' W 093°48'4 7.0
2018-Feb-16 19:30N 30°01' W 093°45'3 6.2
2018-Feb-16 19:00N 30°03' W 093°42'4 5.3
2018-Feb-16 18:12N 30°04' W 093°37'1 6.2
2018-Feb-16 17:59N 30°04' W 093°36'3 5.4
2018-Feb-16 17:30N 30°04' W 093°33'3 5.3
2018-Feb-16 17:00N 30°04' W 093°30'3 5.3
2018-Feb-16 16:30N 30°04' W 093°27'2 5.0
2018-Feb-16 16:00N 30°04' W 093°24'2 3.0
2018-Feb-16 15:30N 30°04' W 093°22'1 2.2
2018-Feb-16 15:00N 30°04' W 093°21'2 3.6
2018-Feb-16 14:30N 30°05' W 093°20'2 3.5
2018-Feb-16 14:00N 30°05' W 093°18'1 2.5
2018-Feb-16 13:30N 30°05' W 093°17'1 1.4
2018-Feb-16 13:00N 30°04' W 093°16'2 4.8
2018-Feb-16 12:30N 30°02' W 093°15'2 4.4
2018-Feb-16 12:00N 30°00' W 093°13'1 2.4
2018-Feb-16 11:30N 29°59' W 093°13'0 0.0
2018-Feb-16 11:00N 29°59' W 093°13'0 0.0
2018-Feb-16 10:30N 29°59' W 093°13'0 0.0
2018-Feb-16 10:00N 29°59' W 093°13'0 0.0
2018-Feb-16 09:22N 29°59' W 093°13'0 0.1
2018-Feb-16 08:38N 29°59' W 093°12'0 2.5
2018-Feb-16 08:30N 29°59' W 093°12'2 3.7
2018-Feb-16 07:58N 29°57' W 093°11'0 0.6
2018-Feb-16 07:30N 29°57' W 093°10'2 4.2
2018-Feb-16 07:00N 29°56' W 093°08'42 3.6
2018-Feb-15 19:18N 29°51' W 092°21'1 4.5
2018-Feb-15 19:00N 29°50' W 092°19'2 4.5
2018-Feb-15 18:30N 29°49' W 092°17'3 5.0
2018-Feb-15 18:00N 29°48' W 092°15'2 4.0
2018-Feb-15 17:30N 29°47' W 092°12'1 1.8
2018-Feb-15 17:00N 29°47' W 092°12'0 1.0
2018-Feb-15 16:31N 29°47' W 092°11'1 1.0
2018-Feb-15 16:00N 29°47' W 092°12'0 0.0
2018-Feb-15 15:29N 29°47' W 092°12'0 0.0
2018-Feb-15 15:00N 29°47' W 092°12'0 0.0
2018-Feb-15 14:30N 29°47' W 092°12'0 0.0
2018-Feb-15 13:58N 29°47' W 092°12'0 0.0
2018-Feb-15 13:30N 29°47' W 092°12'0 0.0
2018-Feb-15 13:00N 29°47' W 092°12'0 0.0
2018-Feb-15 12:30N 29°47' W 092°12'0 0.0
2018-Feb-15 12:00N 29°47' W 092°12'0 0.0
2018-Feb-15 11:30N 29°47' W 092°12'0 0.0
2018-Feb-15 11:00N 29°47' W 092°12'0 0.0
2018-Feb-15 10:30N 29°47' W 092°12'0 0.0
2018-Feb-15 10:00N 29°47' W 092°12'0 0.0
2018-Feb-15 09:30N 29°47' W 092°12'0 0.0
2018-Feb-15 09:00N 29°47' W 092°12'0 0.0
2018-Feb-15 08:30N 29°47' W 092°12'0 0.0
2018-Feb-15 08:00N 29°47' W 092°12'0 0.0
2018-Feb-15 07:30N 29°47' W 092°12'0 0.0
2018-Feb-15 07:00N 29°47' W 092°12'0 0.0
2018-Feb-15 06:30N 29°47' W 092°12'0 0.0
2018-Feb-15 06:00N 29°47' W 092°12'0 0.0
2018-Feb-15 05:29N 29°47' W 092°12'0 0.0
2018-Feb-15 04:56N 29°47' W 092°12'0 0.0
2018-Feb-15 04:30N 29°47' W 092°12'0 0.0
2018-Feb-15 04:00N 29°47' W 092°12'0 0.0
2018-Feb-15 03:29N 29°47' W 092°12'0 0.0
2018-Feb-15 03:00N 29°47' W 092°12'1 1.6
2018-Feb-15 02:30N 29°47' W 092°11'2 4.6
2018-Feb-15 02:00N 29°47' W 092°08'2 3.8
2018-Feb-15 01:30N 29°48' W 092°06'2 4.0
2018-Feb-15 01:00N 29°48' W 092°04'62 3.3
2018-Feb-14 06:14N 29°33' W 090°55'4 5.8
2018-Feb-14 05:35N 29°32' W 090°50'0 6.0
2018-Feb-14 05:30N 29°32' W 090°50'3 6.1
2018-Feb-14 05:00N 29°32' W 090°46'3 5.2
2018-Feb-14 04:30N 29°34' W 090°44'2 4.0
2018-Feb-14 04:00N 29°35' W 090°43'2 3.2
2018-Feb-14 03:30N 29°37' W 090°42'0 0.2
2018-Feb-14 03:00N 29°37' W 090°42'0 0.0
2018-Feb-14 02:30N 29°37' W 090°42'0 0.7
2018-Feb-14 02:00N 29°37' W 090°41'1 1.9
2018-Feb-14 01:30N 29°36' W 090°40'2 4.7
2018-Feb-14 01:00N 29°35' W 090°38'3 4.5
2018-Feb-14 00:26N 29°35' W 090°35'  
Track history (hours):
 
Tides and Currents Weather Stations Pressure Air Temp Water Temp Dewpoint Dewpoint Depression Visibility Wind Speed Wind Dir Waves Ship Positions

William

Owner: Enterprise Marine Services, LLC, San Antonio, TX. More information available from US FCC via Universal Licensing System and Coast Guard Vessel Documentation Center.

Last reported at 2018-Feb-19 06:01 UTC. Time now 2018-Feb-19 06:09 UTC.
Position N 30°04' W 093°24'.

Length 22 m; draft 2.7 m.

Type: Towing. MMSI: 367423260.

Date/timePositionNaut miles runAvg speedWind from/ knotsBaromVisibWave heightAir tempDewpointWater temp
2018-Feb-19 06:01N 30°04' W 093°24'0 0.0
2018-Feb-19 05:29N 30°04' W 093°24'0 0.0
2018-Feb-19 05:00N 30°04' W 093°24'0 0.0
2018-Feb-19 04:29N 30°04' W 093°24'0 0.0
2018-Feb-19 04:00N 30°04' W 093°24'0 0.0
2018-Feb-19 03:30N 30°04' W 093°24'0 0.0
2018-Feb-19 02:58N 30°04' W 093°24'0 0.0
2018-Feb-19 02:29N 30°04' W 093°24'0 0.0
2018-Feb-19 02:00N 30°04' W 093°24'0 0.0
2018-Feb-19 01:31N 30°04' W 093°24'0 0.0
2018-Feb-19 01:01N 30°04' W 093°24'1 1.8
2018-Feb-19 00:31N 30°04' W 093°25'3 6.2
2018-Feb-19 00:00N 30°04' W 093°28'7 6.8
2018-Feb-18 23:00N 30°04' W 093°36'3 6.4
2018-Feb-18 22:30N 30°04' W 093°40'3 6.7
2018-Feb-18 22:01N 30°03' W 093°44'3 6.7
2018-Feb-18 21:31N 30°00' W 093°46'3 6.7
2018-Feb-18 21:01N 29°59' W 093°49'3 6.7
2018-Feb-18 20:31N 29°56' W 093°52'3 6.2
2018-Feb-18 20:01N 29°54' W 093°54'3 6.0
2018-Feb-18 19:31N 29°51' W 093°56'2 4.0
2018-Feb-18 19:00N 29°50' W 093°58'0 0.4
2018-Feb-18 18:30N 29°50' W 093°58'0 0.4
2018-Feb-18 18:00N 29°50' W 093°58'0 0.0
2018-Feb-18 17:30N 29°50' W 093°58'0 0.4
2018-Feb-18 17:01N 29°50' W 093°58'0 0.0
2018-Feb-18 16:30N 29°50' W 093°58'0 0.0
2018-Feb-18 16:00N 29°50' W 093°58'0 0.0
2018-Feb-18 15:30N 29°50' W 093°58'0 0.0
2018-Feb-18 15:00N 29°50' W 093°58'0 0.0
2018-Feb-18 14:30N 29°50' W 093°58'0 0.0
2018-Feb-18 14:00N 29°50' W 093°58'0 0.0
2018-Feb-18 13:30N 29°50' W 093°58'0 0.0
2018-Feb-18 13:00N 29°50' W 093°58'0 0.0
2018-Feb-18 12:30N 29°50' W 093°58'0 0.0
2018-Feb-18 12:00N 29°50' W 093°58'0 0.0
2018-Feb-18 11:30N 29°50' W 093°58'0 0.0
2018-Feb-18 11:00N 29°50' W 093°58'0 0.0
2018-Feb-18 10:30N 29°50' W 093°58'0 0.0
2018-Feb-18 10:00N 29°50' W 093°58'0 0.0
2018-Feb-18 09:30N 29°50' W 093°58'0 0.0
2018-Feb-18 09:00N 29°50' W 093°58'0 0.0
2018-Feb-18 08:29N 29°50' W 093°58'0 0.0
2018-Feb-18 08:00N 29°50' W 093°58'0 0.0
2018-Feb-18 07:30N 29°50' W 093°58'0 0.0
2018-Feb-18 07:00N 29°50' W 093°58'0 0.0
2018-Feb-18 06:30N 29°50' W 093°58'0 0.0
2018-Feb-18 05:59N 29°50' W 093°58'0 0.0
2018-Feb-18 05:30N 29°50' W 093°58'0 0.0
2018-Feb-18 04:59N 29°50' W 093°58'0 0.0
2018-Feb-18 04:30N 29°50' W 093°58'0 0.0
2018-Feb-18 04:00N 29°50' W 093°58'0 0.0
2018-Feb-18 03:30N 29°50' W 093°58'0 0.0
2018-Feb-18 03:00N 29°50' W 093°58'0 0.2
2018-Feb-18 02:30N 29°50' W 093°58'0 0.0
2018-Feb-18 02:00N 29°50' W 093°58'0 0.0
2018-Feb-18 01:30N 29°50' W 093°58'0 0.0
2018-Feb-18 01:00N 29°50' W 093°58'0 0.0
2018-Feb-18 00:30N 29°50' W 093°58'0 0.1
2018-Feb-18 00:00N 29°50' W 093°58'0 0.1
2018-Feb-17 23:30N 29°50' W 093°58'0 0.0
2018-Feb-17 23:00N 29°50' W 093°58'0 0.0
2018-Feb-17 22:30N 29°50' W 093°58'0 0.0
2018-Feb-17 22:00N 29°50' W 093°58'0 0.0
2018-Feb-17 21:30N 29°50' W 093°58'0 0.0
2018-Feb-17 21:00N 29°50' W 093°58'0 0.0
2018-Feb-17 20:30N 29°50' W 093°58'0 0.0
2018-Feb-17 20:00N 29°50' W 093°58'0 0.0
2018-Feb-17 19:30N 29°50' W 093°58'0 0.0
2018-Feb-17 19:00N 29°50' W 093°58'0 0.0
2018-Feb-17 18:30N 29°50' W 093°58'0 0.0
2018-Feb-17 18:00N 29°50' W 093°58'0 0.0
2018-Feb-17 17:30N 29°50' W 093°58'0 0.0
2018-Feb-17 17:00N 29°50' W 093°58'0 0.0
2018-Feb-17 16:30N 29°50' W 093°58'0 0.0
2018-Feb-17 16:00N 29°50' W 093°58'0 0.0
2018-Feb-17 15:30N 29°50' W 093°58'0 0.0
2018-Feb-17 15:00N 29°50' W 093°58'0 0.0
2018-Feb-17 14:30N 29°50' W 093°58'0 0.1
2018-Feb-17 14:00N 29°50' W 093°58'0 0.0
2018-Feb-17 13:30N 29°50' W 093°58'0 0.0
2018-Feb-17 13:00N 29°50' W 093°58'0 0.1
2018-Feb-17 12:30N 29°50' W 093°58'0 0.2
2018-Feb-17 12:00N 29°50' W 093°58'0 0.0
2018-Feb-17 11:30N 29°50' W 093°58'0 0.0
2018-Feb-17 11:00N 29°50' W 093°58'0 0.0
2018-Feb-17 10:30N 29°50' W 093°58'0 0.0
2018-Feb-17 10:00N 29°50' W 093°58'0 0.0
2018-Feb-17 09:30N 29°50' W 093°58'0 0.0
2018-Feb-17 09:00N 29°50' W 093°58'0 0.0
2018-Feb-17 08:30N 29°50' W 093°58'0 0.0
2018-Feb-17 08:00N 29°50' W 093°58'0 0.0
2018-Feb-17 07:30N 29°50' W 093°58'0 0.0
2018-Feb-17 07:00N 29°50' W 093°58'0 0.0
2018-Feb-17 06:30N 29°50' W 093°58'0 0.0
2018-Feb-17 06:00N 29°50' W 093°58'0 0.0
2018-Feb-17 05:30N 29°50' W 093°58'0 0.0
2018-Feb-17 05:00N 29°50' W 093°58'0 0.0
2018-Feb-17 04:30N 29°50' W 093°58'0 0.0
2018-Feb-17 04:00N 29°50' W 093°58'0 0.0
2018-Feb-17 03:30N 29°50' W 093°58'0 0.0
2018-Feb-17 03:00N 29°50' W 093°58'0 0.0
2018-Feb-17 02:30N 29°50' W 093°58'0 0.0
2018-Feb-17 02:00N 29°50' W 093°58'0 0.1
2018-Feb-17 01:30N 29°50' W 093°58'0 0.1
2018-Feb-17 01:00N 29°50' W 093°58'0 0.0
2018-Feb-17 00:30N 29°50' W 093°58'0 0.0
2018-Feb-17 00:00N 29°50' W 093°58'0 0.0
2018-Feb-16 23:29N 29°50' W 093°58'0 0.0
2018-Feb-16 23:00N 29°50' W 093°58'0 0.0
2018-Feb-16 22:30N 29°50' W 093°58'0 0.0
2018-Feb-16 22:00N 29°50' W 093°58'1 2.9
2018-Feb-16 21:30N 29°51' W 093°57'4 7.9
2018-Feb-16 21:00N 29°54' W 093°54'4 7.4
2018-Feb-16 20:30N 29°57' W 093°51'3 6.3
2018-Feb-16 20:00N 29°59' W 093°48'4 7.0
2018-Feb-16 19:30N 30°01' W 093°45'3 6.2
2018-Feb-16 19:00N 30°03' W 093°42'4 5.3
2018-Feb-16 18:12N 30°04' W 093°37'1 6.2
2018-Feb-16 17:59N 30°04' W 093°36'3 5.4
2018-Feb-16 17:30N 30°04' W 093°33'3 5.3
2018-Feb-16 17:00N 30°04' W 093°30'3 5.3
2018-Feb-16 16:30N 30°04' W 093°27'2 5.0
2018-Feb-16 16:00N 30°04' W 093°24'2 3.0
2018-Feb-16 15:30N 30°04' W 093°22'1 2.2
2018-Feb-16 15:00N 30°04' W 093°21'2 3.6
2018-Feb-16 14:30N 30°05' W 093°20'2 3.5
2018-Feb-16 14:00N 30°05' W 093°18'1 2.5
2018-Feb-16 13:30N 30°05' W 093°17'1 1.4
2018-Feb-16 13:00N 30°04' W 093°16'2 4.8
2018-Feb-16 12:30N 30°02' W 093°15'2 4.4
2018-Feb-16 12:00N 30°00' W 093°13'1 2.4
2018-Feb-16 11:30N 29°59' W 093°13'0 0.0
2018-Feb-16 11:00N 29°59' W 093°13'0 0.0
2018-Feb-16 10:30N 29°59' W 093°13'0 0.0
2018-Feb-16 10:00N 29°59' W 093°13'0 0.0
2018-Feb-16 09:22N 29°59' W 093°13'0 0.1
2018-Feb-16 08:38N 29°59' W 093°12'0 2.5
2018-Feb-16 08:30N 29°59' W 093°12'2 3.7
2018-Feb-16 07:58N 29°57' W 093°11'0 0.6
2018-Feb-16 07:30N 29°57' W 093°10'2 4.2
2018-Feb-16 07:00N 29°56' W 093°08'42 3.6
2018-Feb-15 19:18N 29°51' W 092°21'1 4.5
2018-Feb-15 19:00N 29°50' W 092°19'2 4.5
2018-Feb-15 18:30N 29°49' W 092°17'3 5.0
2018-Feb-15 18:00N 29°48' W 092°15'2 4.0
2018-Feb-15 17:30N 29°47' W 092°12'1 1.8
2018-Feb-15 17:00N 29°47' W 092°12'0 1.0
2018-Feb-15 16:31N 29°47' W 092°11'1 1.0
2018-Feb-15 16:00N 29°47' W 092°12'0 0.0
2018-Feb-15 15:29N 29°47' W 092°12'0 0.0
2018-Feb-15 15:00N 29°47' W 092°12'0 0.0
2018-Feb-15 14:30N 29°47' W 092°12'0 0.0
2018-Feb-15 13:58N 29°47' W 092°12'0 0.0
2018-Feb-15 13:30N 29°47' W 092°12'0 0.0
2018-Feb-15 13:00N 29°47' W 092°12'0 0.0
2018-Feb-15 12:30N 29°47' W 092°12'0 0.0
2018-Feb-15 12:00N 29°47' W 092°12'0 0.0
2018-Feb-15 11:30N 29°47' W 092°12'0 0.0
2018-Feb-15 11:00N 29°47' W 092°12'0 0.0
2018-Feb-15 10:30N 29°47' W 092°12'0 0.0
2018-Feb-15 10:00N 29°47' W 092°12'0 0.0
2018-Feb-15 09:30N 29°47' W 092°12'0 0.0
2018-Feb-15 09:00N 29°47' W 092°12'0 0.0
2018-Feb-15 08:30N 29°47' W 092°12'0 0.0
2018-Feb-15 08:00N 29°47' W 092°12'0 0.0
2018-Feb-15 07:30N 29°47' W 092°12'0 0.0
2018-Feb-15 07:00N 29°47' W 092°12'0 0.0
2018-Feb-15 06:30N 29°47' W 092°12'0 0.0
2018-Feb-15 06:00N 29°47' W 092°12'0 0.0
2018-Feb-15 05:29N 29°47' W 092°12'0 0.0
2018-Feb-15 04:56N 29°47' W 092°12'0 0.0
2018-Feb-15 04:30N 29°47' W 092°12'0 0.0
2018-Feb-15 04:00N 29°47' W 092°12'0 0.0
2018-Feb-15 03:29N 29°47' W 092°12'0 0.0
2018-Feb-15 03:00N 29°47' W 092°12'1 1.6
2018-Feb-15 02:30N 29°47' W 092°11'2 4.6
2018-Feb-15 02:00N 29°47' W 092°08'2 3.8
2018-Feb-15 01:30N 29°48' W 092°06'2 4.0
2018-Feb-15 01:00N 29°48' W 092°04'62 3.3
2018-Feb-14 06:14N 29°33' W 090°55'4 5.8
2018-Feb-14 05:35N 29°32' W 090°50'0 6.0
2018-Feb-14 05:30N 29°32' W 090°50'3 6.1
2018-Feb-14 05:00N 29°32' W 090°46'3 5.2
2018-Feb-14 04:30N 29°34' W 090°44'2 4.0
2018-Feb-14 04:00N 29°35' W 090°43'2 3.2
2018-Feb-14 03:30N 29°37' W 090°42'0 0.2
2018-Feb-14 03:00N 29°37' W 090°42'0 0.0
2018-Feb-14 02:30N 29°37' W 090°42'0 0.7
2018-Feb-14 02:00N 29°37' W 090°41'1 1.9
2018-Feb-14 01:30N 29°36' W 090°40'2 4.7
2018-Feb-14 01:00N 29°35' W 090°38'3 4.5
2018-Feb-14 00:26N 29°35' W 090°35'  

Dump ship's entire track history